This is the latest recevied weather packets stored in our database for station/object G0TGD-10. If no packets are shown the sender has not sent any weather packets the latest 1 day(s).
| Time | Temp. | Humidity | Pressure | Rain* | Wind** | Luminosity | Snow |
|---|---|---|---|---|---|---|---|
| 1777766756 | 12.22° C | 61% | 1009.2 hPa | - | - | - | - |
| 1777765856 | 12.22° C | 61% | 1009.4 hPa | - | - | - | - |
| 1777764955 | 12.22° C | 61% | 1009.5 hPa | - | - | - | - |
| 1777764055 | 12.78° C | 60% | 1009.5 hPa | - | - | - | - |
| 1777763155 | 12.78° C | 60% | 1009.6 hPa | - | - | - | - |
| 1777762255 | 12.78° C | 59% | 1009.8 hPa | - | - | - | - |
| 1777761355 | 12.78° C | 58% | 1010 hPa | - | - | - | - |
| 1777760455 | 12.78° C | 57% | 1010.1 hPa | - | - | - | - |
| 1777759555 | 12.78° C | 57% | 1010.3 hPa | - | - | - | - |
| 1777758655 | 12.22° C | 56% | 1010.5 hPa | - | - | - | - |
| 1777757755 | 12.22° C | 56% | 1010.4 hPa | - | - | - | - |
| 1777756855 | 12.22° C | 55% | 1010.7 hPa | - | - | - | - |
| 1777755955 | 12.78° C | 55% | 1010.8 hPa | - | - | - | - |
| 1777755055 | 12.78° C | 55% | 1011.4 hPa | - | - | - | - |
| 1777754154 | 13.33° C | 53% | 1011.4 hPa | - | - | - | - |
| 1777753254 | 13.33° C | 53% | 1011.4 hPa | - | - | - | - |
| 1777752354 | 13.89° C | 52% | 1012.1 hPa | - | - | - | - |
| 1777751454 | 15° C | 50% | 1011.5 hPa | - | - | - | - |
| 1777750554 | 15.56° C | 48% | 1011.2 hPa | - | - | - | - |
| 1777749654 | 16.67° C | 47% | 1011 hPa | - | - | - | - |
| 1777748754 | 17.78° C | 45% | 1010.9 hPa | - | - | - | - |
| 1777747854 | 18.89° C | 44% | 1010.9 hPa | - | - | - | - |
| 1777746954 | 18.89° C | 44% | 1011 hPa | - | - | - | - |
| 1777746054 | 19.44° C | 44% | 1011 hPa | - | - | - | - |
| 1777745153 | 19.44° C | 44% | 1011.1 hPa | - | - | - | - |
* Rain since midnight (hover to see other rain measurements)
** Current wind speed in m/s (hover to see current wind gust speed)